Time;durP1;ratioP1;P1;durP2;ratioP2;P2;SDS_P1;SDS_P2;PMS_P1;PMS_P2;Temp;Humidity;BMP_temperature;BMP_pressure;BME280_temperature;BME280_humidity;BME280_pressure;Samples;Min_cycle;Max_cycle;Signal;HPM_P1;HPM_P2
2023/05/15 00:00:10;;;;;;;5.53;5.00;;;;;;;12.10;75.32;94900.06;5024081;28;20272;-68
2023/05/15 00:02:36;;;;;;;5.83;5.33;;;;;;;12.19;75.40;94898.28;5023146;28;20217;-65
2023/05/15 00:05:06;;;;;;;5.93;5.43;;;;;;;12.17;75.65;94875.72;5042786;28;20225;-65
2023/05/15 00:07:32;;;;;;;5.73;5.13;;;;;;;12.26;75.24;94883.44;5025356;28;20610;-64
2023/05/15 00:09:57;;;;;;;5.97;5.43;;;;;;;12.20;75.17;94867.47;5030293;28;20252;-64
2023/05/15 00:12:23;;;;;;;6.93;5.73;;;;;;;12.23;74.92;94878.50;5025909;28;20275;-64
2023/05/15 00:14:48;;;;;;;5.97;5.47;;;;;;;12.26;74.88;94875.53;5023513;28;20236;-66
2023/05/15 00:17:13;;;;;;;6.30;5.80;;;;;;;12.33;74.49;94881.81;5031355;28;20304;-65
2023/05/15 00:19:39;;;;;;;6.13;5.53;;;;;;;11.81;76.56;94889.97;5032908;28;20192;-64
2023/05/15 00:22:05;;;;;;;7.13;6.37;;;;;;;11.90;76.28;94906.66;5024770;28;20247;-64
2023/05/15 00:24:30;;;;;;;6.80;6.20;;;;;;;11.72;77.11;94905.94;5039968;28;21159;-64
2023/05/15 00:26:56;;;;;;;7.20;6.53;;;;;;;11.87;76.63;94917.53;5026460;28;20226;-64
2023/05/15 00:29:22;;;;;;;6.60;6.10;;;;;;;12.01;76.35;94908.16;5044588;28;20222;-64
2023/05/15 00:31:48;;;;;;;8.30;7.27;;;;;;;11.91;76.32;94895.94;5044763;28;20250;-64
2023/05/15 00:34:13;;;;;;;7.88;7.05;;;;;;;11.96;76.59;94913.09;5025213;28;20189;-64
2023/05/15 00:36:39;;;;;;;7.53;6.82;;;;;;;11.91;76.70;94908.31;5026973;28;20213;-65
2023/05/15 00:39:04;;;;;;;7.57;6.87;;;;;;;11.82;76.83;94911.88;5025741;28;20218;-64
2023/05/15 00:41:31;;;;;;;8.07;7.37;;;;;;;11.87;77.00;94917.53;5025836;28;20221;-64
2023/05/15 00:43:59;;;;;;;8.00;6.93;;;;;;;11.94;76.71;94900.06;5037794;28;20236;-64
2023/05/15 00:46:26;;;;;;;8.10;7.40;;;;;;;11.99;76.39;94881.97;5030669;28;20303;-64
2023/05/15 00:48:52;;;;;;;8.17;7.23;;;;;;;11.98;76.33;94890.03;5021519;28;20238;-65
2023/05/15 00:51:17;;;;;;;7.57;6.85;;;;;;;11.91;76.41;94916.22;5030378;28;20232;-68
2023/05/15 00:53:43;;;;;;;7.10;6.38;;;;;;;11.91;75.97;94916.22;5018099;28;20343;-66
2023/05/15 00:56:11;;;;;;;6.70;6.20;;;;;;;11.74;76.06;94914.50;5028003;28;20304;-67
2023/05/15 00:58:37;;;;;;;6.97;6.38;;;;;;;11.81;75.67;94913.69;5021969;28;20204;-66
2023/05/15 01:01:03;;;;;;;6.65;6.05;;;;;;;11.91;75.60;94909.13;5023533;28;20225;-67
2023/05/15 01:03:28;;;;;;;6.83;6.23;;;;;;;11.92;75.40;94907.31;5028880;28;20306;-67
2023/05/15 01:05:54;;;;;;;7.03;6.32;;;;;;;11.88;75.64;94906.81;5024632;28;20230;-67
2023/05/15 01:08:22;;;;;;;7.50;6.85;;;;;;;11.79;75.95;94909.59;5025415;28;20224;-68
2023/05/15 01:10:51;;;;;;;7.40;6.77;;;;;;;11.79;75.88;94902.50;5040773;28;20201;-68
2023/05/15 01:13:20;;;;;;;7.25;6.65;;;;;;;11.75;75.82;94918.78;5026037;28;20192;-69
2023/05/15 01:15:45;;;;;;;8.40;7.50;;;;;;;11.31;77.89;94911.91;5023331;28;20217;-67
2023/05/15 01:18:11;;;;;;;8.57;7.67;;;;;;;11.22;78.23;94900.50;5020315;28;20248;-67
2023/05/15 01:21:06;;;;;;;8.15;7.45;;;;;;;11.53;76.96;94899.16;5046387;28;20221;-68
2023/05/15 01:24:03;;;;;;;8.35;7.65;;;;;;;11.43;77.24;94897.44;5023275;28;20236;-68
2023/05/15 01:26:39;;;;;;;8.40;7.70;;;;;;;11.51;77.10;94883.50;5020755;28;20875;-68
2023/05/15 01:29:20;;;;;;;8.93;7.60;;;;;;;11.48;77.08;94878.56;5038905;28;20224;-67
2023/05/15 01:31:55;;;;;;;8.85;8.00;;;;;;;11.54;76.96;94877.09;5025034;28;20181;-67
2023/05/15 01:34:27;;;;;;;8.75;7.78;;;;;;;11.63;76.80;94882.22;5023460;28;20184;-67
2023/05/15 01:36:56;;;;;;;7.87;7.17;;;;;;;11.67;76.32;94866.91;5019410;28;20218;-70
2023/05/15 01:39:26;;;;;;;8.35;7.57;;;;;;;11.65;76.38;94876.78;5024450;28;20237;-66
2023/05/15 01:42:09;;;;;;;8.20;7.40;;;;;;;11.62;76.75;94887.63;5025235;28;20228;-67
2023/05/15 01:44:43;;;;;;;8.60;7.77;;;;;;;11.56;76.58;94870.66;5028239;28;20302;-66
2023/05/15 01:47:13;;;;;;;8.45;7.70;;;;;;;11.65;76.35;94859.19;5028623;28;20277;-66
2023/05/15 01:49:40;;;;;;;8.73;7.93;;;;;;;11.62;76.64;94858.66;5029803;28;20185;-66
2023/05/15 01:52:15;;;;;;;9.43;8.43;;;;;;;11.56;76.49;94868.03;5029325;28;20248;-67
2023/05/15 01:54:41;;;;;;;9.07;8.30;;;;;;;11.47;76.67;94872.47;5024749;28;20228;-67
2023/05/15 01:57:09;;;;;;;8.60;7.90;;;;;;;11.32;77.69;94857.44;5026776;28;20372;-67
2023/05/15 01:59:36;;;;;;;9.47;8.57;;;;;;;11.44;76.93;94850.88;5028529;28;20229;-67
2023/05/15 02:02:04;;;;;;;9.23;8.33;;;;;;;11.43;76.42;94855.34;5027523;28;20198;-66
2023/05/15 02:04:30;;;;;;;9.10;8.27;;;;;;;11.46;76.54;94860.28;5031836;28;20233;-66
2023/05/15 02:06:56;;;;;;;9.20;8.30;;;;;;;11.40;76.33;94881.97;5028897;28;20307;-67
2023/05/15 02:09:22;;;;;;;10.30;8.07;;;;;;;11.32;76.40;94868.78;5029521;28;20224;-68
2023/05/15 02:11:49;;;;;;;8.30;7.65;;;;;;;11.43;76.27;94875.56;5034990;28;20259;-67
2023/05/15 02:14:16;;;;;;;9.80;8.87;;;;;;;11.44;76.25;94877.22;5020454;28;20308;-66
2023/05/15 02:16:41;;;;;;;9.20;8.40;;;;;;;11.36;76.41;94869.28;5039792;28;20232;-65
2023/05/15 02:19:07;;;;;;;8.95;8.15;;;;;;;11.36;76.51;94869.28;5024512;28;20256;-65
2023/05/15 02:21:33;;;;;;;8.60;7.90;;;;;;;11.40;76.20;94860.91;5028282;28;20232;-65
2023/05/15 02:23:59;;;;;;;10.10;9.05;;;;;;;11.52;75.78;94863.25;5025103;28;20243;-66
2023/05/15 02:26:56;;;;;;;9.15;8.35;;;;;;;11.45;76.04;94866.53;5027855;28;20236;-65
2023/05/15 02:29:36;;;;;;;9.95;9.10;;;;;;;11.13;77.21;94859.34;5023809;28;20221;-65
2023/05/15 02:32:18;;;;;;;10.10;9.07;;;;;;;11.32;76.85;94847.75;5020440;28;20193;-66
2023/05/15 02:35:02;;;;;;;9.73;8.93;;;;;;;11.43;76.13;94842.16;5028080;28;20236;-66
2023/05/15 02:37:31;;;;;;;9.30;8.40;;;;;;;11.40;76.28;94836.41;5022001;28;20186;-66
2023/05/15 02:39:59;;;;;;;8.55;7.85;;;;;;;11.47;76.12;94835.59;5027257;28;20226;-66
2023/05/15 02:42:30;;;;;;;9.45;8.65;;;;;;;11.53;76.17;94838.59;5028962;28;20283;-66
2023/05/15 02:44:56;;;;;;;10.65;8.70;;;;;;;11.46;76.33;94844.47;5025483;28;20617;-66
2023/05/15 02:47:23;;;;;;;9.82;8.90;;;;;;;11.09;77.88;94857.19;5043113;28;20217;-66
2023/05/15 02:49:49;;;;;;;10.93;10.03;;;;;;;10.99;78.44;94858.16;5027282;28;20277;-66
2023/05/15 02:52:14;;;;;;;11.47;10.47;;;;;;;10.99;79.02;94852.06;5029418;28;20289;-66
2023/05/15 02:54:40;;;;;;;13.60;12.00;;;;;;;10.93;79.45;94848.28;5019322;28;20515;-66
2023/05/15 02:57:06;;;;;;;13.43;12.13;;;;;;;10.94;79.74;94841.19;5049848;28;20270;-66
2023/05/15 02:59:32;;;;;;;12.37;11.33;;;;;;;11.03;78.99;94827.91;5020690;28;20359;-66
2023/05/15 03:01:58;;;;;;;12.90;11.70;;;;;;;11.24;78.63;94835.38;5030767;28;20271;-66
2023/05/15 03:04:24;;;;;;;14.13;12.73;;;;;;;11.29;77.96;94827.00;5023120;28;20225;-66
2023/05/15 03:06:49;;;;;;;13.77;12.57;;;;;;;11.31;78.00;94842.66;5028089;28;20234;-66
2023/05/15 03:09:15;;;;;;;13.43;12.23;;;;;;;11.39;77.68;94842.66;5027141;28;20232;-68
2023/05/15 03:11:40;;;;;;;13.23;12.07;;;;;;;11.37;77.97;94855.16;5043810;28;20217;-67
2023/05/15 03:14:06;;;;;;;13.40;12.10;;;;;;;11.43;77.78;94849.25;5024979;28;20300;-67
2023/05/15 03:16:31;;;;;;;13.07;11.88;;;;;;;11.33;78.21;94869.63;5034894;28;20185;-67
2023/05/15 03:18:57;;;;;;;13.30;12.10;;;;;;;11.38;77.70;94860.25;5024817;28;20225;-67
2023/05/15 03:21:22;;;;;;;13.20;11.87;;;;;;;11.44;77.44;94861.41;5024418;28;20229;-69
2023/05/15 03:23:48;;;;;;;12.93;11.83;;;;;;;11.50;77.26;94857.34;5029039;28;20284;-66
2023/05/15 03:26:13;;;;;;;14.00;12.70;;;;;;;11.47;77.28;94872.47;5026718;28;20221;-68
2023/05/15 03:28:39;;;;;;;13.75;12.55;;;;;;;11.51;76.98;94866.88;5023071;28;20181;-67
2023/05/15 03:31:04;;;;;;;14.25;12.93;;;;;;;11.45;77.23;94855.19;5025875;28;20227;-65
2023/05/15 03:33:30;;;;;;;13.90;12.60;;;;;;;11.52;77.06;94852.72;5021450;28;20217;-69
2023/05/15 03:35:56;;;;;;;13.67;12.40;;;;;;;11.47;77.43;94842.69;5021701;28;20327;-65
2023/05/15 03:38:21;;;;;;;12.47;11.27;;;;;;;11.46;77.16;94848.91;5026947;28;20240;-64
2023/05/15 03:40:47;;;;;;;14.93;13.63;;;;;;;11.48;77.67;94833.78;5025605;28;20194;-66
2023/05/15 03:43:12;;;;;;;13.70;12.40;;;;;;;11.57;77.43;94839.88;5018568;28;20195;-65
2023/05/15 03:45:38;;;;;;;14.00;12.70;;;;;;;11.51;77.96;94836.09;5020438;28;20232;-66
2023/05/15 03:48:04;;;;;;;14.20;13.00;;;;;;;11.58;77.54;94833.66;5027592;28;20229;-65
2023/05/15 03:50:30;;;;;;;15.63;14.13;;;;;;;11.57;77.84;94834.63;5030045;28;20299;-66
2023/05/15 03:52:55;;;;;;;14.85;13.45;;;;;;;11.63;77.53;94839.25;5023860;28;20294;-68
2023/05/15 03:55:21;;;;;;;15.10;13.73;;;;;;;11.66;77.82;94838.94;5031646;28;20181;-67
2023/05/15 03:57:46;;;;;;;14.63;13.30;;;;;;;11.73;77.84;94850.44;5024063;28;20560;-68
2023/05/15 04:00:12;;;;;;;15.07;13.67;;;;;;;11.74;77.57;94846.03;5022492;28;20276;-67
2023/05/15 04:02:39;;;;;;;14.97;13.63;;;;;;;11.74;77.23;94854.75;5025669;28;20232;-67
2023/05/15 04:05:06;;;;;;;15.80;14.30;;;;;;;11.61;77.91;94849.13;5022395;28;20240;-65
2023/05/15 04:07:33;;;;;;;14.70;13.40;;;;;;;11.65;77.82;94843.38;5024216;28;20185;-67
2023/05/15 04:10:00;;;;;;;14.00;12.70;;;;;;;11.72;77.50;94845.34;5024458;28;20227;-67
2023/05/15 04:12:30;;;;;;;14.35;13.02;;;;;;;11.68;77.99;94837.78;5026331;28;20229;-66
2023/05/15 04:14:58;;;;;;;13.60;12.40;;;;;;;11.71;77.85;94857.72;5041131;28;20323;-70
2023/05/15 04:17:24;;;;;;;12.98;11.77;;;;;;;11.76;77.67;94863.31;5026012;28;20225;-68
2023/05/15 04:19:49;;;;;;;13.98;12.68;;;;;;;11.80;77.41;94869.88;5023919;28;20982;-69
2023/05/15 04:22:15;;;;;;;13.70;12.40;;;;;;;11.79;76.87;94868.25;5029665;28;20182;-67
2023/05/15 04:24:40;;;;;;;12.48;11.27;;;;;;;11.59;77.67;94874.78;5023248;28;20255;-70
2023/05/15 04:27:06;;;;;;;13.13;12.03;;;;;;;11.53;77.94;94871.00;5022898;28;20231;-71
2023/05/15 04:29:31;;;;;;;12.82;11.73;;;;;;;11.54;78.14;94862.09;5026175;28;20327;-69
2023/05/15 04:31:57;;;;;;;13.68;12.48;;;;;;;11.71;77.54;94865.63;5030477;28;20256;-68
2023/05/15 04:34:22;;;;;;;14.32;13.05;;;;;;;11.59;77.85;94853.72;5027504;28;20209;-71
2023/05/15 04:36:48;;;;;;;14.57;13.38;;;;;;;11.63;78.36;94869.06;5026799;28;20217;-66
2023/05/15 04:39:13;;;;;;;14.85;13.45;;;;;;;11.60;78.94;94863.25;5029711;28;20229;-69
2023/05/15 04:41:39;;;;;;;15.48;14.10;;;;;;;11.72;78.49;94858.53;5025437;28;20228;-67
2023/05/15 04:44:05;;;;;;;14.98;13.63;;;;;;;11.80;78.09;94835.66;5025805;28;20308;-68
2023/05/15 04:46:33;;;;;;;14.50;13.10;;;;;;;11.89;77.73;94836.50;5034018;28;20283;-69
2023/05/15 04:48:59;;;;;;;14.55;13.30;;;;;;;11.77;78.01;94824.63;5020581;28;20228;-69
2023/05/15 04:51:24;;;;;;;13.10;11.90;;;;;;;11.86;77.78;94839.47;5021934;28;20213;-69
2023/05/15 04:53:49;;;;;;;13.77;12.57;;;;;;;11.87;77.43;94847.22;5025245;28;20259;-68
2023/05/15 04:56:15;;;;;;;13.95;12.65;;;;;;;11.94;77.26;94851.81;5028409;28;20235;-67
2023/05/15 04:58:40;;;;;;;13.75;12.55;;;;;;;11.99;77.09;94845.06;5029250;28;20193;-68
2023/05/15 05:01:06;;;;;;;14.25;12.88;;;;;;;12.07;76.81;94846.88;5022484;28;20222;-68
2023/05/15 05:03:32;;;;;;;12.30;11.30;;;;;;;12.07;76.57;94847.69;5016117;28;20222;-68
2023/05/15 05:05:57;;;;;;;13.57;12.37;;;;;;;12.10;76.53;94844.72;5025496;28;20323;-68
2023/05/15 05:08:23;;;;;;;14.25;12.93;;;;;;;12.09;76.62;94839.66;5030621;28;20231;-67
2023/05/15 05:10:53;;;;;;;14.82;13.52;;;;;;;12.13;77.44;94830.41;5046846;28;20186;-68
2023/05/15 05:13:19;;;;;;;14.68;13.48;;;;;;;12.14;77.35;94814.44;5021928;28;20220;-68
2023/05/15 05:15:45;;;;;;;15.32;13.82;;;;;;;12.13;77.48;94815.44;5025845;28;20214;-68
2023/05/15 05:18:10;;;;;;;15.32;13.70;;;;;;;12.16;77.46;94821.34;5025417;28;20221;-68
2023/05/15 05:20:36;;;;;;;20.77;15.52;;;;;;;12.18;77.94;94812.28;5042543;28;20229;-67
2023/05/15 05:23:01;;;;;;;17.10;15.07;;;;;;;12.00;78.62;94819.53;5027375;28;20204;-65
2023/05/15 05:25:27;;;;;;;17.50;15.90;;;;;;;12.08;78.59;94822.16;5030094;28;20212;-65
2023/05/15 05:27:52;;;;;;;16.63;15.03;;;;;;;12.12;78.92;94813.78;5032328;28;20225;-68
2023/05/15 05:30:18;;;;;;;17.93;16.03;;;;;;;12.22;78.38;94818.88;5029960;28;20224;-69
2023/05/15 05:32:43;;;;;;;18.95;15.70;;;;;;;12.40;77.74;94817.84;5029051;28;20304;-69
2023/05/15 05:35:09;;;;;;;16.88;15.13;;;;;;;12.51;75.33;94830.69;5031011;28;20235;-65
2023/05/15 05:37:35;;;;;;;17.45;14.48;;;;;;;12.30;76.59;94818.06;5029540;28;20189;-67
2023/05/15 05:40:00;;;;;;;17.20;15.40;;;;;;;12.44;76.76;94824.44;5045441;28;20329;-67
2023/05/15 05:42:26;;;;;;;17.20;15.40;;;;;;;12.60;76.79;94821.78;5029250;28;20218;-67
2023/05/15 05:44:52;;;;;;;16.27;14.67;;;;;;;12.67;76.11;94812.19;5030142;28;20213;-68
2023/05/15 05:47:17;;;;;;;16.42;14.82;;;;;;;12.62;76.38;94825.06;5027756;28;20268;-67
2023/05/15 05:49:46;;;;;;;16.33;14.63;;;;;;;12.86;75.83;94815.44;5026665;28;20859;-67
2023/05/15 05:52:11;;;;;;;15.98;14.48;;;;;;;12.96;75.52;94816.03;5032879;28;20685;-67
2023/05/15 05:54:36;;;;;;;15.80;14.18;;;;;;;13.01;75.33;94825.09;5029661;28;20229;-67
2023/05/15 05:57:02;;;;;;;17.15;15.48;;;;;;;13.09;74.64;94816.31;5033431;28;20228;-67
2023/05/15 05:59:28;;;;;;;16.53;14.90;;;;;;;13.19;74.51;94819.56;5028801;28;20221;-67
2023/05/15 06:01:54;;;;;;;15.85;14.35;;;;;;;13.25;74.21;94813.59;5026568;28;20194;-67
2023/05/15 06:04:20;;;;;;;16.00;14.40;;;;;;;13.30;74.27;94820.22;5006541;28;20317;-66
2023/05/15 06:06:45;;;;;;;15.15;13.65;;;;;;;13.35;74.14;94820.50;5018018;28;20628;-67
2023/05/15 06:09:10;;;;;;;15.55;14.05;;;;;;;13.31;74.52;94827.97;5041661;28;20220;-67
2023/05/15 06:11:36;;;;;;;15.10;13.57;;;;;;;13.49;74.46;94826.88;5022914;28;20260;-67
2023/05/15 06:14:02;;;;;;;15.15;13.65;;;;;;;13.60;74.10;94831.75;5027111;28;20202;-66
2023/05/15 06:16:27;;;;;;;15.13;13.48;;;;;;;13.55;73.21;94821.72;5031656;28;20185;-67
2023/05/15 06:18:52;;;;;;;14.73;13.15;;;;;;;13.66;73.06;94818.69;5021918;28;20246;-66
2023/05/15 06:21:18;;;;;;;15.77;13.43;;;;;;;13.57;73.26;94817.06;5027690;28;20740;-67
2023/05/15 06:23:43;;;;;;;16.70;14.85;;;;;;;13.62;72.69;94804.16;5026016;28;20214;-67
2023/05/15 06:26:09;;;;;;;17.92;15.65;;;;;;;13.72;72.78;94803.94;5040817;28;20293;-67
2023/05/15 06:28:34;;;;;;;15.95;14.25;;;;;;;13.75;71.92;94808.88;5033709;28;20185;-68
2023/05/15 06:31:00;;;;;;;17.85;15.10;;;;;;;13.75;71.90;94821.25;5030321;28;20572;-68
2023/05/15 06:33:25;;;;;;;17.08;14.80;;;;;;;13.84;71.22;94825.47;5032761;28;20304;-66
2023/05/15 06:35:51;;;;;;;18.60;15.52;;;;;;;13.92;70.95;94817.47;5032501;28;20215;-68
2023/05/15 06:38:16;;;;;;;15.05;13.45;;;;;;;14.05;70.48;94822.19;5024162;28;20213;-66
2023/05/15 06:40:42;;;;;;;17.48;15.23;;;;;;;14.10;69.79;94823.28;5030821;28;20239;-66
2023/05/15 06:43:07;;;;;;;16.65;14.20;;;;;;;14.13;69.30;94836.16;5033920;28;20218;-67
2023/05/15 06:45:33;;;;;;;15.80;13.43;;;;;;;14.24;69.50;94831.44;5026020;28;20214;-67
2023/05/15 06:47:58;;;;;;;13.73;12.35;;;;;;;14.31;69.35;94825.25;5040884;28;20210;-68
2023/05/15 06:50:24;;;;;;;15.82;12.88;;;;;;;14.38;68.78;94830.66;5021789;28;20517;-67
2023/05/15 06:52:50;;;;;;;14.68;13.18;;;;;;;14.36;68.84;94830.03;5033307;28;20185;-70
2023/05/15 06:55:15;;;;;;;15.52;13.88;;;;;;;14.32;69.96;94834.00;5031276;28;20267;-69
2023/05/15 06:57:41;;;;;;;16.40;13.45;;;;;;;14.50;69.31;94833.69;5041603;28;20300;-68
2023/05/15 07:00:07;;;;;;;14.30;12.93;;;;;;;14.59;69.22;94834.44;5026232;28;20316;-68
2023/05/15 07:02:33;;;;;;;16.75;14.20;;;;;;;14.69;69.25;94835.03;5031751;28;20228;-68
2023/05/15 07:04:58;;;;;;;15.20;13.38;;;;;;;14.78;68.72;94831.28;5026647;28;20237;-67
2023/05/15 07:07:23;;;;;;;13.52;12.13;;;;;;;15.09;67.58;94838.22;5034065;28;20206;-68
2023/05/15 07:09:49;;;;;;;15.38;11.70;;;;;;;14.83;68.92;94846.63;5011567;28;20222;-68
2023/05/15 07:12:14;;;;;;;17.15;12.10;;;;;;;14.83;68.50;94830.72;5033092;28;20214;-68
2023/05/15 07:14:40;;;;;;;19.58;12.25;;;;;;;14.79;68.00;94825.00;5029836;28;20214;-69
2023/05/15 07:17:05;;;;;;;14.75;12.68;;;;;;;15.00;67.53;94819.78;5032017;28;20224;-69
2023/05/15 07:19:31;;;;;;;16.38;13.75;;;;;;;15.11;67.38;94822.97;5033828;28;20211;-69
2023/05/15 07:21:56;;;;;;;17.65;13.73;;;;;;;15.06;67.54;94834.09;5033687;28;20225;-68
2023/05/15 07:24:22;;;;;;;15.52;14.02;;;;;;;14.98;68.25;94821.78;5028605;28;20222;-68
2023/05/15 07:26:47;;;;;;;18.02;14.38;;;;;;;15.09;67.08;94831.09;5031918;28;20237;-68
2023/05/15 07:29:12;;;;;;;16.30;14.10;;;;;;;15.06;67.26;94835.94;5033294;28;20221;-67
2023/05/15 07:31:39;;;;;;;17.77;15.23;;;;;;;15.15;66.85;94834.81;5030315;28;20189;-67
2023/05/15 07:34:04;;;;;;;18.52;14.93;;;;;;;15.30;66.94;94845.41;5033720;28;20228;-68
2023/05/15 07:36:30;;;;;;;15.05;13.45;;;;;;;15.12;66.58;94833.38;5032856;28;20221;-68
2023/05/15 07:38:55;;;;;;;19.27;14.18;;;;;;;15.16;66.55;94832.00;5030716;28;20229;-68
2023/05/15 07:41:21;;;;;;;17.83;15.68;;;;;;;15.18;67.15;94832.66;5031075;28;20304;-68
2023/05/15 07:43:46;;;;;;;15.57;13.93;;;;;;;15.24;66.92;94839.03;5029693;28;20189;-69
2023/05/15 07:46:12;;;;;;;15.70;14.10;;;;;;;15.24;66.64;94824.97;5034008;28;20212;-68
2023/05/15 07:48:37;;;;;;;18.85;16.92;;;;;;;15.33;66.62;94834.44;5033322;28;20228;-68
2023/05/15 07:51:03;;;;;;;18.40;15.88;;;;;;;15.19;66.44;94831.63;5024841;28;20240;-67
2023/05/15 07:53:28;;;;;;;17.60;15.73;;;;;;;14.97;67.18;94822.81;5043421;28;20318;-63
2023/05/15 07:55:54;;;;;;;16.67;15.00;;;;;;;15.04;66.44;94832.66;5027410;28;20182;-66
2023/05/15 07:58:19;;;;;;;18.67;15.38;;;;;;;14.90;66.03;94843.06;5027610;28;20185;-66
2023/05/15 08:00:45;;;;;;;18.10;16.38;;;;;;;14.98;66.67;94842.97;5022749;28;20232;-66
2023/05/15 08:03:10;;;;;;;15.57;13.80;;;;;;;15.02;66.69;94845.25;5024232;28;20245;-67
2023/05/15 08:05:36;;;;;;;16.08;14.63;;;;;;;15.12;66.00;94846.59;5031759;28;20222;-68
2023/05/15 08:08:01;;;;;;;17.50;15.75;;;;;;;15.15;66.48;94853.38;5024569;28;20205;-68
2023/05/15 08:10:27;;;;;;;18.13;16.33;;;;;;;15.19;67.00;94852.81;5022323;28;20185;-68
2023/05/15 08:12:52;;;;;;;16.52;14.95;;;;;;;15.20;66.72;94853.63;5040649;28;20228;-67
2023/05/15 08:15:18;;;;;;;17.40;15.63;;;;;;;15.06;66.92;94851.84;5041806;28;20210;-67
2023/05/15 08:17:43;;;;;;;18.00;15.98;;;;;;;15.03;67.09;94853.00;5032595;28;20233;-71
2023/05/15 08:20:09;;;;;;;18.05;15.90;;;;;;;15.07;66.35;94848.97;5021884;28;20221;-64
2023/05/15 08:22:35;;;;;;;17.20;15.48;;;;;;;15.09;65.53;94851.47;5025737;28;20246;-65
2023/05/15 08:25:02;;;;;;;19.05;17.25;;;;;;;15.18;65.30;94853.00;5031371;28;20303;-64
2023/05/15 08:27:28;;;;;;;20.13;15.82;;;;;;;15.12;65.38;94846.59;5012046;28;20225;-64
2023/05/15 08:29:54;;;;;;;22.58;16.40;;;;;;;15.12;64.94;94854.56;5041698;28;20716;-64
2023/05/15 08:32:19;;;;;;;17.88;16.02;;;;;;;15.12;65.25;94840.50;5028098;28;20249;-64
2023/05/15 08:34:45;;;;;;;19.50;16.13;;;;;;;15.18;65.62;94848.53;5021592;28;20193;-67
2023/05/15 08:37:10;;;;;;;17.88;16.08;;;;;;;15.31;65.27;94847.88;5025240;28;20204;-67
2023/05/15 08:39:35;;;;;;;17.33;15.52;;;;;;;15.42;65.32;94844.75;5030844;28;20226;-69
2023/05/15 08:42:13;;;;;;;15.93;14.35;;;;;;;15.33;64.78;94845.84;5027558;28;20236;-68
2023/05/15 08:44:40;;;;;;;18.05;15.70;;;;;;;15.53;64.79;94837.31;5022414;28;20252;-67
2023/05/15 08:47:05;;;;;;;17.23;15.10;;;;;;;15.68;64.98;94838.09;5027148;28;20228;-67
2023/05/15 08:49:46;;;;;;;16.00;14.38;;;;;;;15.77;63.72;94838.84;5044640;28;20212;-68
2023/05/15 08:52:12;;;;;;;20.27;16.02;;;;;;;15.74;63.57;94839.22;5035022;28;20212;-68
2023/05/15 08:54:39;;;;;;;17.58;15.82;;;;;;;15.78;63.81;94836.00;5025421;28;20224;-65
2023/05/15 08:57:06;;;;;;;17.40;15.60;;;;;;;15.55;63.48;94830.81;5026029;28;20218;-68
2023/05/15 08:59:31;;;;;;;15.50;13.93;;;;;;;15.59;63.77;94826.00;5030002;28;20244;-70
2023/05/15 09:01:57;;;;;;;16.75;13.25;;;;;;;15.63;63.69;94828.06;5041015;28;20217;-68
2023/05/15 09:04:22;;;;;;;16.38;13.98;;;;;;;15.64;64.09;94821.75;5039832;28;20229;-64
2023/05/15 09:06:48;;;;;;;16.02;12.98;;;;;;;15.52;64.37;94811.84;5028569;28;20234;-66
2023/05/15 09:09:14;;;;;;;16.30;12.90;;;;;;;15.37;64.64;94828.59;5031119;28;20221;-65
2023/05/15 09:11:45;;;;;;;13.60;12.20;;;;;;;15.27;64.48;94824.59;5026177;28;20278;-66
2023/05/15 09:14:11;;;;;;;14.40;12.98;;;;;;;15.22;64.72;94831.25;5024383;28;20256;-68
2023/05/15 09:16:37;;;;;;;15.32;13.57;;;;;;;15.32;64.62;94822.22;5037456;28;20281;-64
2023/05/15 09:19:04;;;;;;;15.73;13.13;;;;;;;15.10;65.00;94824.81;5021935;28;20218;-68
2023/05/15 09:21:30;;;;;;;17.08;15.38;;;;;;;15.05;64.96;94818.38;5021002;28;20225;-69
2023/05/15 09:24:21;;;;;;;15.85;14.20;;;;;;;15.14;64.12;94796.13;5029350;28;20218;-74
2023/05/15 09:27:00;;;;;;;16.08;13.90;;;;;;;15.33;63.94;94807.94;5021193;28;20237;-73
2023/05/15 09:29:28;;;;;;;15.15;13.18;;;;;;;15.30;63.88;94810.97;5027369;28;20240;-74
2023/05/15 09:31:53;;;;;;;15.55;13.88;;;;;;;15.47;63.32;94795.66;5027628;28;20190;-72
2023/05/15 09:34:28;;;;;;;15.68;14.18;;;;;;;15.64;62.65;94799.75;5023198;28;20181;-69
2023/05/15 09:36:55;;;;;;;16.25;14.52;;;;;;;15.70;62.27;94801.66;5015136;28;20221;-72
2023/05/15 09:39:23;;;;;;;15.90;14.30;;;;;;;15.77;62.59;94786.66;5036265;28;20248;-71
2023/05/15 09:41:49;;;;;;;16.65;14.98;;;;;;;15.92;62.00;94789.22;5027032;28;20218;-73
2023/05/15 09:44:24;;;;;;;16.25;14.00;;;;;;;15.92;61.56;94781.28;5026551;28;20288;-74
2023/05/15 09:46:50;;;;;;;16.40;14.02;;;;;;;15.97;62.07;94773.56;5019942;28;20225;-73
2023/05/15 09:49:17;;;;;;;17.75;15.02;;;;;;;15.81;62.77;94760.56;5026999;28;20276;-76
2023/05/15 09:51:43;;;;;;;15.30;13.80;;;;;;;15.78;62.79;94756.47;5026324;28;20209;-76
2023/05/15 09:54:18;;;;;;;15.57;14.07;;;;;;;15.77;62.38;94754.00;5028801;28;20214;-75
2023/05/15 09:56:44;;;;;;;14.68;13.18;;;;;;;15.90;61.99;94758.59;5022996;28;20277;-75
2023/05/15 09:59:15;;;;;;;14.15;12.68;;;;;;;15.80;62.91;94766.91;5044237;28;20248;-75
2023/05/15 10:01:45;;;;;;;15.25;12.57;;;;;;;15.55;63.19;94764.56;5029037;28;20209;-74
2023/05/15 10:04:12;;;;;;;15.93;12.38;;;;;;;15.63;63.19;94763.63;4988685;28;1169183;-74
2023/05/15 10:06:40;;;;;;;13.45;12.15;;;;;;;15.78;61.78;94763.63;5020568;28;20234;-73
2023/05/15 10:09:05;;;;;;;13.55;12.23;;;;;;;15.75;62.17;94756.84;5024711;28;20271;-73
2023/05/15 10:11:35;;;;;;;13.30;11.95;;;;;;;15.72;61.87;94757.25;5029953;28;20609;-73
2023/05/15 10:14:04;;;;;;;16.02;13.05;;;;;;;15.77;62.81;94754.00;5032492;28;20217;-72
2023/05/15 10:16:32;;;;;;;14.50;12.30;;;;;;;15.63;62.63;94753.84;5041690;28;20173;-69
2023/05/15 10:19:02;;;;;;;13.05;11.55;;;;;;;15.79;62.54;94758.09;5023105;28;20214;-70
2023/05/15 10:21:29;;;;;;;13.32;11.90;;;;;;;15.92;61.86;94749.44;5023004;28;20257;-72
2023/05/15 10:23:59;;;;;;;16.75;12.30;;;;;;;16.05;61.23;94756.69;5030415;28;20221;-67
2023/05/15 10:26:46;;;;;;;14.05;11.93;;;;;;;16.28;61.18;94769.75;5024467;28;20226;-66
2023/05/15 10:29:13;;;;;;;15.63;13.30;;;;;;;16.17;61.54;94771.09;5039361;28;20229;-67
2023/05/15 10:31:39;;;;;;;15.48;13.48;;;;;;;16.30;61.01;94773.84;5027848;28;20181;-69
2023/05/15 10:34:05;;;;;;;19.20;16.38;;;;;;;16.42;61.06;94773.31;5030756;28;20282;-69
2023/05/15 10:36:33;;;;;;;19.00;14.38;;;;;;;16.26;61.11;94788.50;5026195;28;20214;-67
2023/05/15 10:39:00;;;;;;;20.17;14.80;;;;;;;16.47;61.10;94803.56;5030450;28;20222;-67
2023/05/15 10:41:29;;;;;;;12.85;11.65;;;;;;;16.24;59.96;94797.66;5040181;28;20218;-67
2023/05/15 10:43:58;;;;;;;17.55;14.48;;;;;;;16.48;59.59;94793.75;5028242;28;20265;-68
2023/05/15 10:46:24;;;;;;;15.55;12.38;;;;;;;16.29;60.37;94790.75;5010985;28;20317;-71
2023/05/15 10:48:50;;;;;;;15.70;13.20;;;;;;;16.51;60.22;94794.19;5019916;28;20233;-76
2023/05/15 10:51:18;;;;;;;13.65;12.20;;;;;;;16.60;60.43;94791.38;5047670;28;20216;-68
2023/05/15 10:53:44;;;;;;;13.00;11.70;;;;;;;16.36;59.66;94789.97;5029168;28;20248;-70
2023/05/15 10:56:16;;;;;;;16.55;12.82;;;;;;;16.40;60.75;94801.88;5044136;28;20218;-71
2023/05/15 10:58:49;;;;;;;15.30;12.75;;;;;;;16.37;60.31;94789.00;5030682;28;20187;-71
2023/05/15 11:01:30;;;;;;;14.55;13.00;;;;;;;16.23;60.68;94778.28;5029321;28;20200;-71
2023/05/15 11:04:18;;;;;;;13.73;11.88;;;;;;;16.32;61.86;94789.56;5032050;28;20234;-72
2023/05/15 11:06:48;;;;;;;15.32;13.43;;;;;;;16.41;61.33;94782.28;5023520;28;20226;-68
2023/05/15 11:09:20;;;;;;;13.57;12.25;;;;;;;16.34;61.81;94781.41;5028521;28;20248;-69
2023/05/15 11:11:51;;;;;;;12.95;11.50;;;;;;;16.39;61.49;94785.13;5033856;28;20287;-74
2023/05/15 11:14:18;;;;;;;13.68;11.68;;;;;;;16.45;60.56;94783.53;5032863;28;20778;-68
2023/05/15 11:16:52;;;;;;;16.02;11.73;;;;;;;16.56;59.87;94777.69;5023977;28;20279;-70
2023/05/15 11:19:22;;;;;;;12.48;11.00;;;;;;;16.61;59.60;94782.41;5023565;28;20217;-68
2023/05/15 11:21:55;;;;;;;15.70;11.75;;;;;;;16.66;59.62;94770.19;5028966;28;20240;-70